Time;durP1;ratioP1;P1;durP2;ratioP2;P2;SDS_P1;SDS_P2;PMS_P1;PMS_P2;Temp;Humidity;BMP_temperature;BMP_pressure;BME280_temperature;BME280_humidity;BME280_pressure;Samples;Min_cycle;Max_cycle;Signal;HPM_P1;HPM_P2
2022/12/12 00:00:36;;;;;;;9.05;4.55;;;;;;;18.91;44.72;100162.94;5035251;28;20056;-89
2022/12/12 00:03:04;;;;;;;5.25;4.43;;;;;;;18.91;44.91;100170.16;5033921;28;20049;-89
2022/12/12 00:05:31;;;;;;;6.57;4.07;;;;;;;18.89;44.84;100161.41;5018286;28;20054;-89
2022/12/12 00:07:59;;;;;;;5.20;4.18;;;;;;;18.90;44.92;100168.47;5036547;28;20061;-88
2022/12/12 00:10:26;;;;;;;6.07;4.32;;;;;;;18.88;44.92;100165.94;5036048;28;20065;-89
2022/12/12 00:12:54;;;;;;;6.40;4.45;;;;;;;18.88;44.27;100157.03;5034125;28;20057;-89
2022/12/12 00:15:22;;;;;;;6.85;4.85;;;;;;;18.87;44.76;100155.34;5034751;28;20048;-91
2022/12/12 00:17:50;;;;;;;5.45;4.38;;;;;;;18.87;44.51;100158.88;5017391;28;20050;-90
2022/12/12 00:20:17;;;;;;;6.13;4.25;;;;;;;18.87;44.67;100158.03;5034328;28;20060;-90
2022/12/12 00:22:44;;;;;;;6.15;4.60;;;;;;;18.85;44.68;100160.03;5034082;28;20076;-89
2022/12/12 00:25:12;;;;;;;5.68;4.32;;;;;;;18.84;44.58;100159.19;5034421;28;20060;-89
2022/12/12 00:27:40;;;;;;;6.47;4.32;;;;;;;18.85;44.65;100165.38;5020865;28;20053;-88
2022/12/12 00:30:08;;;;;;;5.30;4.35;;;;;;;18.84;44.82;100158.31;5037607;28;20045;-89
2022/12/12 00:32:35;;;;;;;6.88;5.00;;;;;;;18.85;44.47;100154.66;5037481;28;20056;-85
2022/12/12 00:35:03;;;;;;;5.75;4.60;;;;;;;18.83;44.49;100157.47;5037315;28;20068;-88
2022/12/12 00:37:30;;;;;;;5.90;4.50;;;;;;;18.83;44.56;100161.97;5020962;28;20056;-88
2022/12/12 00:39:58;;;;;;;6.00;4.55;;;;;;;18.83;44.22;100164.66;5037480;28;20053;-90
2022/12/12 00:42:26;;;;;;;5.35;4.25;;;;;;;18.83;44.52;100170.03;5037415;28;20172;-91
2022/12/12 00:44:53;;;;;;;4.90;3.88;;;;;;;18.83;44.45;100172.72;5019006;28;20056;-90
2022/12/12 00:47:21;;;;;;;5.82;4.45;;;;;;;18.81;44.18;100174.72;5018664;28;20050;-90
2022/12/12 00:49:48;;;;;;;4.85;4.00;;;;;;;18.80;44.41;100165.81;5019036;28;20049;-89
2022/12/12 00:52:16;;;;;;;4.85;4.30;;;;;;;18.78;44.30;100160.59;5035519;28;20049;-89
2022/12/12 00:54:43;;;;;;;5.57;4.50;;;;;;;18.81;44.36;100174.72;5038647;28;20057;-90
2022/12/12 00:57:10;;;;;;;5.68;5.05;;;;;;;18.79;44.16;100161.44;5037410;28;20517;-89
2022/12/12 00:59:38;;;;;;;6.43;4.93;;;;;;;18.80;44.14;100178.34;5037379;28;20053;-88
2022/12/12 01:02:05;;;;;;;5.05;3.70;;;;;;;18.79;44.16;100180.19;5020412;28;20046;-89
2022/12/12 01:04:33;;;;;;;5.00;4.18;;;;;;;18.78;44.21;100179.34;5020219;28;20064;-89
2022/12/12 01:07:00;;;;;;;5.18;4.10;;;;;;;18.79;43.98;100182.88;5037240;28;20402;-88
2022/12/12 01:09:28;;;;;;;5.85;4.50;;;;;;;18.78;43.97;100192.75;5037530;28;20057;-90
2022/12/12 01:11:55;;;;;;;5.10;4.43;;;;;;;18.77;44.01;100196.44;5036700;28;20053;-89
2022/12/12 01:14:23;;;;;;;5.43;4.28;;;;;;;18.78;44.09;100200.81;5035877;28;20053;-86
2022/12/12 01:16:50;;;;;;;4.65;4.00;;;;;;;18.77;44.00;100204.50;5035995;28;20061;-86
2022/12/12 01:19:18;;;;;;;4.68;3.92;;;;;;;18.76;43.72;100205.47;5036358;28;20053;-87
2022/12/12 01:21:45;;;;;;;5.55;4.32;;;;;;;18.76;44.05;100202.81;5037390;28;20529;-90
2022/12/12 01:24:13;;;;;;;6.15;4.53;;;;;;;18.76;43.83;100197.44;5020679;28;20060;-89
2022/12/12 01:26:40;;;;;;;5.47;4.40;;;;;;;18.76;43.88;100201.97;5037231;28;20056;-91
2022/12/12 01:29:08;;;;;;;4.80;3.83;;;;;;;18.75;43.96;100201.09;5018382;28;20501;-87
2022/12/12 01:31:35;;;;;;;4.95;4.00;;;;;;;18.75;43.84;100209.13;5035282;28;20056;-87
2022/12/12 01:34:03;;;;;;;8.38;4.10;;;;;;;18.75;43.90;100208.28;5035236;28;20037;-87
2022/12/12 01:36:30;;;;;;;4.97;3.85;;;;;;;18.74;43.83;100212.81;5034285;28;20045;-89
2022/12/12 01:38:59;;;;;;;5.10;4.10;;;;;;;18.74;43.88;100215.50;5018514;28;20057;-86
2022/12/12 01:41:26;;;;;;;5.72;4.50;;;;;;;18.73;44.05;100218.31;5036736;28;20053;-87
2022/12/12 01:43:54;;;;;;;5.25;4.15;;;;;;;18.73;43.84;100221.84;5037095;28;20473;-86
2022/12/12 01:46:33;;;;;;;4.25;3.60;;;;;;;18.73;43.67;100216.47;5035782;28;20056;-85
2022/12/12 01:49:24;;;;;;;7.28;4.03;;;;;;;18.72;43.71;100217.47;5037487;28;20045;-86
2022/12/12 01:51:57;;;;;;;4.72;3.78;;;;;;;18.72;43.71;100220.16;5034188;28;20057;-87
2022/12/12 01:54:30;;;;;;;4.93;4.22;;;;;;;18.70;43.71;100216.75;5035616;28;20481;-87
2022/12/12 01:57:01;;;;;;;5.05;3.83;;;;;;;18.71;43.73;100215.78;5020178;28;20057;-87
2022/12/12 01:59:32;;;;;;;4.63;3.47;;;;;;;18.70;43.68;100213.25;5037947;28;20469;-87
2022/12/12 02:02:00;;;;;;;4.25;3.80;;;;;;;18.70;43.55;100219.44;5036785;28;20076;-87
2022/12/12 02:04:27;;;;;;;4.85;3.70;;;;;;;18.70;43.62;100221.28;5038011;28;20044;-88
2022/12/12 02:06:56;;;;;;;3.90;3.17;;;;;;;18.69;43.57;100223.09;5036034;28;20508;-87
2022/12/12 02:09:24;;;;;;;5.03;3.60;;;;;;;18.69;43.21;100217.72;5038088;28;20049;-87
2022/12/12 02:11:55;;;;;;;5.22;3.85;;;;;;;18.69;43.73;100220.41;5020748;28;20045;-87
2022/12/12 02:14:30;;;;;;;5.40;4.00;;;;;;;18.69;43.53;100219.56;5037779;28;20044;-87
2022/12/12 02:17:30;;;;;;;5.45;4.10;;;;;;;18.68;43.63;100218.72;5035784;28;20057;-87
2022/12/12 02:20:27;;;;;;;4.10;3.53;;;;;;;18.68;43.42;100226.78;5017962;28;20053;-89
2022/12/12 02:22:55;;;;;;;4.38;3.00;;;;;;;18.67;43.60;100214.31;5018231;28;20489;-90
2022/12/12 02:25:34;;;;;;;4.72;3.45;;;;;;;18.67;43.58;100222.38;5035380;28;20050;-89
2022/12/12 02:28:23;;;;;;;5.40;3.63;;;;;;;18.67;43.42;100225.06;5036646;28;20397;-90
2022/12/12 02:31:21;;;;;;;4.10;3.15;;;;;;;18.67;43.54;100221.53;5019432;28;20057;-88
2022/12/12 02:33:55;;;;;;;4.15;3.55;;;;;;;18.66;43.84;100222.53;5035128;28;20056;-87
2022/12/12 02:37:02;;;;;;;4.88;3.90;;;;;;;18.66;43.55;100230.56;5035684;28;20056;-88
2022/12/12 02:39:48;;;;;;;6.20;3.70;;;;;;;18.66;43.34;100233.25;4987046;28;20507;-87
2022/12/12 02:42:27;;;;;;;5.47;4.07;;;;;;;18.65;43.44;100236.94;5036197;28;20057;-87
2022/12/12 02:45:13;;;;;;;4.68;3.47;;;;;;;18.65;43.36;100234.25;5018737;28;20080;-87
2022/12/12 02:47:51;;;;;;;4.65;3.80;;;;;;;18.65;43.36;100239.59;5034957;28;20385;-87
2022/12/12 02:50:22;;;;;;;4.72;3.40;;;;;;;18.63;43.43;100229.00;5034251;28;20053;-87
2022/12/12 02:52:50;;;;;;;4.05;3.65;;;;;;;18.63;43.48;100226.31;5035086;28;20057;-87
2022/12/12 02:55:18;;;;;;;4.05;3.22;;;;;;;18.63;43.41;100220.13;5033824;28;20065;-88
2022/12/12 02:57:48;;;;;;;4.85;3.70;;;;;;;18.63;43.67;100233.53;5033582;28;20045;-88
2022/12/12 03:00:18;;;;;;;4.90;3.72;;;;;;;18.63;43.52;100225.47;5032634;28;20068;-88
2022/12/12 03:09:53;;;;;;;4.85;3.83;;;;;;;18.62;43.44;100229.16;4974260;28;20046;-87
2022/12/12 03:13:07;;;;;;;4.82;3.55;;;;;;;18.61;43.83;100233.69;4973129;28;20061;-86
2022/12/12 03:15:47;;;;;;;4.72;3.90;;;;;;;18.61;43.55;100231.00;4954131;29;20051;-87
2022/12/12 03:18:41;;;;;;;5.18;3.83;;;;;;;18.60;43.45;100231.16;4955441;29;20070;-87
2022/12/12 03:21:24;;;;;;;5.28;3.92;;;;;;;18.60;43.52;100233.84;4955251;29;20055;-84
2022/12/12 03:23:56;;;;;;;6.03;4.07;;;;;;;18.60;43.49;100242.72;4955755;29;20071;-87
2022/12/12 03:26:38;;;;;;;4.03;3.63;;;;;;;18.60;43.66;100248.09;4937359;29;20055;-87
2022/12/12 03:29:24;;;;;;;6.15;4.18;;;;;;;18.60;43.71;100241.88;4953669;29;20059;-87
2022/12/12 03:31:58;;;;;;;5.30;4.00;;;;;;;18.60;43.31;100248.09;4938729;29;20519;-87
2022/12/12 03:34:34;;;;;;;4.75;3.70;;;;;;;18.59;43.52;100245.53;4939463;29;20047;-88
2022/12/12 03:37:18;;;;;;;4.72;3.92;;;;;;;18.58;43.26;100246.50;4938878;29;20059;-88
2022/12/12 03:39:54;;;;;;;5.35;4.25;;;;;;;18.58;43.28;100244.69;4938647;29;20051;-88
2022/12/12 03:42:59;;;;;;;4.65;3.58;;;;;;;18.57;43.45;100251.03;4944043;28;20523;-90
2022/12/12 03:45:33;;;;;;;4.95;3.65;;;;;;;18.57;43.33;100253.72;4994718;28;20053;-90
2022/12/12 03:48:17;;;;;;;5.07;4.05;;;;;;;18.57;43.39;100250.19;4981385;28;20057;-88
2022/12/12 03:51:01;;;;;;;5.47;3.90;;;;;;;18.57;43.50;100259.06;5033726;28;20068;-87
2022/12/12 03:53:31;;;;;;;5.03;3.95;;;;;;;18.57;43.65;100267.13;5036906;28;20056;-89
2022/12/12 03:56:15;;;;;;;5.43;3.95;;;;;;;18.56;43.70;100262.75;5035763;28;20057;-92
2022/12/12 03:59:05;;;;;;;5.72;3.78;;;;;;;18.55;43.65;100271.75;5035614;28;20056;-91
2022/12/12 04:01:56;;;;;;;5.20;3.60;;;;;;;18.54;44.12;100265.56;5037160;28;20049;-89
2022/12/12 04:04:33;;;;;;;5.93;4.18;;;;;;;18.55;43.90;100271.75;4959489;29;20054;-90
2022/12/12 04:07:12;;;;;;;6.40;4.40;;;;;;;18.54;43.58;100270.91;4941294;29;20066;-90
2022/12/12 04:12:58;;;;;;;7.10;4.97;;;;;;;18.54;43.67;100267.38;4941991;29;20063;-89
2022/12/12 04:15:32;;;;;;;6.00;4.32;;;;;;;18.54;43.75;100259.34;4959404;29;20078;-88
2022/12/12 04:18:17;;;;;;;;;;;;;;;18.54;43.63;100264.72;4927309;29;20067;-87
2022/12/12 04:24:22;;;;;;;6.57;4.40;;;;;;;18.53;43.72;100268.38;4958055;29;20534;-88
2022/12/12 04:27:00;;;;;;;5.95;4.65;;;;;;;18.53;43.65;100269.22;4959705;29;20055;-89
2022/12/12 04:29:35;;;;;;;6.05;4.30;;;;;;;18.52;43.60;100264.03;4942832;29;20229;-89
2022/12/12 04:32:11;;;;;;;6.28;4.68;;;;;;;18.51;43.41;100262.31;4943552;29;20051;-89
2022/12/12 04:34:50;;;;;;;6.22;4.55;;;;;;;18.52;43.45;100266.69;4927178;29;20066;-89
2022/12/12 04:37:22;;;;;;;6.90;4.18;;;;;;;18.50;43.47;100266.81;4958521;29;20073;-89
2022/12/12 04:39:55;;;;;;;6.40;4.72;;;;;;;18.50;43.84;100268.66;4941543;29;20055;-88
2022/12/12 04:42:27;;;;;;;6.78;4.50;;;;;;;18.50;43.76;100263.31;5015069;28;20057;-89
2022/12/12 04:45:10;;;;;;;6.10;4.35;;;;;;;18.50;43.77;100258.78;5037762;28;20402;-89
2022/12/12 04:47:39;;;;;;;6.10;4.20;;;;;;;18.49;43.74;100267.81;5037053;28;20056;-88
2022/12/12 04:50:08;;;;;;;5.60;4.55;;;;;;;18.49;43.76;100267.81;5020731;28;20057;-88
2022/12/12 04:52:39;;;;;;;6.45;4.28;;;;;;;18.49;43.43;100278.53;5036994;28;20049;-87
2022/12/12 04:55:19;;;;;;;7.38;4.63;;;;;;;18.50;43.58;100279.38;5020965;28;20056;-88
2022/12/12 04:57:52;;;;;;;5.97;4.72;;;;;;;18.49;43.48;100272.34;5038491;28;20061;-88
2022/12/12 05:00:22;;;;;;;6.38;4.30;;;;;;;18.48;43.44;100282.22;5036901;28;20049;-88
2022/12/12 05:03:05;;;;;;;7.03;4.65;;;;;;;18.49;43.41;100286.56;5037593;28;20394;-86
2022/12/12 05:05:43;;;;;;;5.93;4.60;;;;;;;18.48;43.73;100278.69;5036543;28;20056;-84
2022/12/12 05:08:21;;;;;;;7.00;4.47;;;;;;;18.49;43.51;100275.84;5037915;28;20060;-89
2022/12/12 05:10:53;;;;;;;6.97;5.05;;;;;;;18.49;43.50;100285.72;5035861;28;20058;-85
2022/12/12 05:13:23;;;;;;;9.18;5.00;;;;;;;18.48;43.60;100290.25;5038159;28;20060;-88
2022/12/12 05:15:54;;;;;;;7.15;4.85;;;;;;;18.48;43.59;100302.81;5036831;28;20053;-90
2022/12/12 05:18:22;;;;;;;8.18;4.88;;;;;;;18.48;43.76;100300.13;5037457;28;20058;-90
2022/12/12 05:20:50;;;;;;;7.55;4.78;;;;;;;18.47;43.40;100306.44;5036915;28;20053;-89
2022/12/12 05:23:17;;;;;;;8.23;5.38;;;;;;;18.46;43.50;100310.13;5018442;28;20050;-89
2022/12/12 05:25:45;;;;;;;5.90;4.57;;;;;;;18.45;43.53;100308.44;5034605;28;20555;-89
2022/12/12 05:28:12;;;;;;;7.18;4.90;;;;;;;18.45;43.63;100322.69;5037053;28;20042;-91
2022/12/12 05:30:40;;;;;;;7.30;5.10;;;;;;;18.44;43.73;100325.53;5036394;28;20053;-89
2022/12/12 05:33:07;;;;;;;7.78;4.50;;;;;;;18.43;43.58;100321.13;5036516;28;20045;-89
2022/12/12 05:35:35;;;;;;;8.50;5.30;;;;;;;18.42;43.75;100328.31;5036443;28;20045;-88
2022/12/12 05:38:02;;;;;;;6.53;4.90;;;;;;;18.43;43.71;100337.19;5036945;28;20049;-89
2022/12/12 05:40:30;;;;;;;7.72;4.95;;;;;;;18.42;43.84;100336.34;5036877;28;20061;-91
2022/12/12 05:42:57;;;;;;;6.38;4.97;;;;;;;18.41;43.71;100332.00;5036082;28;20054;-88
2022/12/12 05:45:25;;;;;;;6.65;4.72;;;;;;;18.42;43.88;100352.44;5036745;28;20041;-90
2022/12/12 05:47:52;;;;;;;7.38;4.75;;;;;;;18.40;43.94;100346.38;5035769;28;20050;-88
2022/12/12 05:50:19;;;;;;;7.53;4.93;;;;;;;18.40;43.93;100351.75;5018634;28;20505;-88
2022/12/12 05:52:47;;;;;;;8.75;4.93;;;;;;;18.40;44.03;100350.91;5035352;28;20053;-89
2022/12/12 05:55:14;;;;;;;7.03;5.25;;;;;;;18.41;43.86;100356.09;5034978;28;20413;-84
2022/12/12 05:57:42;;;;;;;8.32;4.65;;;;;;;18.39;44.12;100354.53;5036596;28;20052;-90
2022/12/12 06:00:10;;;;;;;8.85;5.28;;;;;;;18.40;43.75;100359.78;5037914;28;20069;-92
2022/12/12 06:02:37;;;;;;;9.73;5.18;;;;;;;18.40;43.79;100358.94;5035206;28;20057;-90
2022/12/12 06:05:05;;;;;;;6.90;4.68;;;;;;;18.42;43.71;100354.28;5035591;28;20056;-92
2022/12/12 06:07:33;;;;;;;6.88;4.88;;;;;;;18.39;43.76;100355.41;5020314;28;20056;-89
2022/12/12 06:10:00;;;;;;;6.57;5.18;;;;;;;18.41;43.68;100366.00;5035269;28;20061;-93
2022/12/12 06:12:28;;;;;;;7.30;4.82;;;;;;;18.40;43.75;100358.94;5036126;28;20058;-89
2022/12/12 06:14:55;;;;;;;6.07;4.88;;;;;;;18.39;43.59;100358.09;5036120;28;20041;-87
2022/12/12 06:17:23;;;;;;;7.22;5.40;;;;;;;18.40;43.67;100370.50;5036789;28;20049;-86
2022/12/12 06:19:57;;;;;;;7.88;5.05;;;;;;;18.40;43.64;100372.34;5034951;28;20053;-84
2022/12/12 06:22:24;;;;;;;7.75;5.43;;;;;;;18.40;43.31;100366.97;5035233;28;20045;-84
2022/12/12 06:24:52;;;;;;;6.85;5.38;;;;;;;18.39;43.65;100371.50;5035965;28;20072;-85
2022/12/12 06:27:19;;;;;;;7.47;5.35;;;;;;;18.40;43.72;100369.66;5035604;28;20053;-85
2022/12/12 06:29:47;;;;;;;8.10;5.18;;;;;;;18.39;43.69;100373.31;5034797;28;20052;-85
2022/12/12 06:32:14;;;;;;;8.63;5.55;;;;;;;18.38;43.67;100388.53;5035743;28;20050;-85
2022/12/12 06:34:42;;;;;;;8.82;5.78;;;;;;;18.38;43.74;100385.00;5036456;28;20046;-86
2022/12/12 06:37:09;;;;;;;8.07;5.35;;;;;;;18.38;43.78;100388.53;5035876;28;20052;-86
2022/12/12 06:39:43;;;;;;;7.43;5.50;;;;;;;18.37;43.62;100388.69;5034606;28;20054;-85
2022/12/12 06:42:11;;;;;;;8.35;5.50;;;;;;;18.38;43.82;100387.69;5033500;28;20054;-85
2022/12/12 06:44:38;;;;;;;8.52;5.72;;;;;;;18.36;43.41;100385.16;5033581;28;20045;-86
2022/12/12 06:47:05;;;;;;;8.30;5.60;;;;;;;18.36;43.89;100397.72;5033466;28;20045;-85
2022/12/12 06:49:33;;;;;;;9.13;5.72;;;;;;;18.35;43.84;100404.03;5035718;28;20405;-87
2022/12/12 06:52:00;;;;;;;7.97;5.57;;;;;;;18.36;43.83;100397.72;5036190;28;20052;-86
2022/12/12 06:54:28;;;;;;;7.45;5.53;;;;;;;18.34;43.86;100405.88;5034515;28;20072;-85
2022/12/12 06:56:55;;;;;;;7.93;5.75;;;;;;;18.35;43.74;100404.03;5036248;28;20049;-85
2022/12/12 06:59:22;;;;;;;9.52;6.22;;;;;;;18.35;43.76;100414.75;5035553;28;20397;-84
2022/12/12 07:01:50;;;;;;;8.70;6.13;;;;;;;18.35;43.74;100420.13;5035657;28;20056;-84
2022/12/12 07:04:17;;;;;;;9.05;5.57;;;;;;;18.35;43.89;100420.13;5035608;28;20052;-84
2022/12/12 07:06:45;;;;;;;8.70;5.40;;;;;;;18.34;43.88;100423.78;5036151;28;20037;-84
2022/12/12 07:09:12;;;;;;;11.70;6.28;;;;;;;18.34;43.53;100421.94;5035928;28;20057;-84
2022/12/12 07:11:40;;;;;;;9.30;5.97;;;;;;;18.35;43.90;100431.72;5035714;28;20052;-84
2022/12/12 07:14:09;;;;;;;8.57;5.72;;;;;;;18.35;43.97;100425.47;5035263;28;20054;-85
2022/12/12 07:16:37;;;;;;;8.55;6.18;;;;;;;18.34;44.03;100447.91;5035449;28;20041;-85
2022/12/12 07:19:04;;;;;;;8.18;5.47;;;;;;;18.34;43.90;100445.22;5034853;28;20072;-85
2022/12/12 07:21:31;;;;;;;7.97;5.82;;;;;;;18.33;44.11;100441.69;5034032;28;20058;-85
2022/12/12 07:23:59;;;;;;;10.27;7.13;;;;;;;18.32;44.10;100442.69;5035989;28;20045;-85
2022/12/12 07:26:26;;;;;;;7.85;5.90;;;;;;;18.33;43.86;100449.75;5035317;28;20413;-85
2022/12/12 07:28:54;;;;;;;9.10;6.30;;;;;;;18.33;43.91;100454.25;5033951;28;20132;-85
2022/12/12 07:31:25;;;;;;;7.13;6.05;;;;;;;18.33;43.99;100468.50;5035468;28;20050;-84
2022/12/12 07:33:56;;;;;;;9.20;6.65;;;;;;;18.32;43.98;100469.50;5035674;28;20385;-87
2022/12/12 07:36:23;;;;;;;9.27;6.30;;;;;;;18.32;43.90;100468.66;5037704;28;20053;-88
2022/12/12 07:38:50;;;;;;;9.25;6.47;;;;;;;18.32;43.92;100474.00;5037085;28;20064;-86
2022/12/12 07:41:19;;;;;;;8.57;6.80;;;;;;;18.31;43.91;100473.16;5019560;28;20056;-86
2022/12/12 07:43:48;;;;;;;9.15;6.88;;;;;;;18.31;43.84;100480.31;5035709;28;20060;-86
2022/12/12 07:46:22;;;;;;;11.70;7.05;;;;;;;18.31;43.90;100480.31;5037867;28;20041;-87
2022/12/12 07:48:51;;;;;;;8.50;6.03;;;;;;;18.29;44.11;100486.66;5038481;28;20056;-86
2022/12/12 07:51:18;;;;;;;8.45;6.22;;;;;;;18.31;44.04;100483.00;5038326;28;20057;-87
2022/12/12 07:53:46;;;;;;;9.75;6.85;;;;;;;18.29;43.93;100481.31;5035808;28;20049;-91
2022/12/12 07:56:14;;;;;;;9.05;6.68;;;;;;;18.28;43.93;100484.97;5036708;28;20048;-87
2022/12/12 07:58:42;;;;;;;7.40;6.07;;;;;;;18.29;43.82;100491.19;5035822;28;20511;-87
2022/12/12 08:01:16;;;;;;;10.82;6.35;;;;;;;18.28;44.07;100495.69;5039095;28;20049;-87
2022/12/12 08:03:45;;;;;;;7.70;6.30;;;;;;;18.27;44.09;100494.00;5036259;28;20050;-86
2022/12/12 08:06:17;;;;;;;8.88;6.78;;;;;;;18.27;43.98;100502.06;5038235;28;20041;-89
2022/12/12 08:08:46;;;;;;;9.50;6.72;;;;;;;18.27;44.05;100502.06;5037735;28;20052;-90
2022/12/12 08:11:16;;;;;;;9.32;6.95;;;;;;;18.27;43.91;100503.84;5039347;28;20056;-90
2022/12/12 08:13:43;;;;;;;10.05;6.50;;;;;;;18.26;44.00;100500.34;5022538;28;20064;-88
2022/12/12 08:16:19;;;;;;;12.20;6.90;;;;;;;18.27;44.10;100499.38;5040444;28;20540;-86
2022/12/12 08:18:47;;;;;;;9.13;6.63;;;;;;;18.28;44.18;100493.03;5036388;28;20060;-86
2022/12/12 08:21:18;;;;;;;8.50;6.82;;;;;;;18.27;44.39;100494.00;5036642;28;20049;-86
2022/12/12 08:24:01;;;;;;;10.68;6.55;;;;;;;18.29;44.28;100505.44;5038469;28;20050;-86
2022/12/12 08:26:30;;;;;;;9.45;6.53;;;;;;;18.29;44.42;100512.63;5015389;28;20054;-85
2022/12/12 08:28:58;;;;;;;10.93;6.85;;;;;;;18.29;44.23;100520.66;5017007;28;20048;-87
2022/12/12 08:31:26;;;;;;;16.40;8.35;;;;;;;18.29;42.55;100531.38;5001614;28;20056;-89
2022/12/12 08:33:53;;;;;;;12.63;9.23;;;;;;;18.25;41.21;100538.84;5018073;28;20050;-88
2022/12/12 08:36:24;;;;;;;13.32;9.15;;;;;;;18.23;40.59;100540.81;5001671;28;20052;-88
2022/12/12 08:38:52;;;;;;;12.88;10.10;;;;;;;18.18;39.59;100537.66;5017963;28;20049;-89
2022/12/12 08:41:21;;;;;;;15.05;10.23;;;;;;;18.16;39.44;100538.78;5016015;28;20410;-88
2022/12/12 08:43:48;;;;;;;14.85;10.05;;;;;;;18.12;39.15;100537.34;5000302;28;20065;-89
2022/12/12 08:46:18;;;;;;;14.25;10.20;;;;;;;18.08;38.96;100550.16;5016617;28;20405;-90
2022/12/12 08:48:47;;;;;;;16.75;11.38;;;;;;;18.06;38.66;100552.09;5016112;28;20060;-89
2022/12/12 08:51:15;;;;;;;16.70;12.30;;;;;;;18.03;38.47;100560.41;4999865;28;20065;-89
2022/12/12 08:53:47;;;;;;;14.80;11.88;;;;;;;18.00;38.30;100558.00;4999326;28;20050;-90
2022/12/12 08:56:16;;;;;;;15.65;12.50;;;;;;;17.99;38.32;100565.19;5030713;28;20054;-85
2022/12/12 08:58:43;;;;;;;14.77;10.90;;;;;;;17.97;39.21;100563.59;5016106;28;20049;-85
2022/12/12 09:01:13;;;;;;;13.75;9.98;;;;;;;17.99;40.30;100562.50;5016891;28;20053;-85
2022/12/12 09:03:40;;;;;;;12.38;8.80;;;;;;;18.01;41.52;100570.41;5016939;28;20046;-84
2022/12/12 09:06:09;;;;;;;13.73;8.50;;;;;;;18.04;42.03;100580.84;5015142;28;20141;-84
2022/12/12 09:08:37;;;;;;;10.85;8.63;;;;;;;18.04;42.02;100568.31;5016906;28;20405;-85
2022/12/12 09:11:05;;;;;;;13.35;9.63;;;;;;;18.06;41.80;100572.69;4998876;28;20049;-84
2022/12/12 09:13:33;;;;;;;10.50;9.40;;;;;;;18.09;41.80;100569.75;5014832;28;20061;-88
2022/12/12 09:16:01;;;;;;;11.15;8.65;;;;;;;18.08;41.88;100571.59;5015554;28;20053;-86
2022/12/12 09:18:29;;;;;;;12.50;8.88;;;;;;;18.09;41.90;100575.94;5013680;28;20524;-88
2022/12/12 09:20:57;;;;;;;11.90;8.90;;;;;;;18.10;41.99;100576.78;4998534;28;20050;-85
2022/12/12 09:23:26;;;;;;;11.77;9.23;;;;;;;18.11;42.13;100571.31;5014668;28;20054;-86
2022/12/12 09:25:54;;;;;;;11.48;8.45;;;;;;;18.11;42.21;100573.13;5016336;28;20050;-85
2022/12/12 09:28:24;;;;;;;12.63;9.02;;;;;;;18.12;42.29;100580.22;5016895;28;20049;-85
2022/12/12 09:30:51;;;;;;;12.00;8.95;;;;;;;18.11;42.18;100576.69;5015144;28;20050;-85
2022/12/12 09:33:19;;;;;;;13.00;8.43;;;;;;;18.13;42.34;100587.25;5016128;28;20057;-85
2022/12/12 09:35:46;;;;;;;11.18;8.13;;;;;;;18.12;42.35;100580.22;4998198;28;20061;-85
2022/12/12 09:38:13;;;;;;;12.30;8.98;;;;;;;18.11;42.24;100574.00;5015850;28;20042;-84
2022/12/12 09:40:46;;;;;;;11.15;8.23;;;;;;;18.11;42.59;100567.78;4970071;28;1311690;-85
2022/12/12 09:43:18;;;;;;;12.43;8.75;;;;;;;18.12;42.42;100573.03;5016031;28;20049;-85
2022/12/12 09:45:46;;;;;;;9.85;7.40;;;;;;;18.11;42.52;100574.00;5016033;28;20046;-86
2022/12/12 09:48:37;;;;;;;12.27;9.18;;;;;;;18.11;42.57;100560.63;5017552;28;20046;-86
2022/12/12 09:51:05;;;;;;;11.18;8.20;;;;;;;18.10;42.54;100560.72;5031683;28;20054;-85
2022/12/12 09:53:33;;;;;;;13.18;8.63;;;;;;;18.11;42.50;100567.78;5015865;28;20054;-85
2022/12/12 09:56:08;;;;;;;11.45;8.45;;;;;;;18.11;42.67;100562.41;5016045;28;20061;-85
2022/12/12 09:58:44;;;;;;;10.55;7.72;;;;;;;18.11;43.11;100557.06;5015589;28;20056;-84
2022/12/12 10:01:33;;;;;;;9.98;8.50;;;;;;;18.10;42.99;100558.88;5016724;28;20050;-85
2022/12/12 10:04:09;;;;;;;9.98;8.50;;;;;;;18.09;42.80;100562.56;5017221;28;20050;-84
2022/12/12 10:07:14;;;;;;;13.07;8.57;;;;;;;18.10;42.72;100558.03;5018016;28;20046;-84
2022/12/12 10:10:03;;;;;;;11.23;8.05;;;;;;;18.10;42.85;100564.25;5051334;28;20501;-83
2022/12/12 10:12:33;;;;;;;11.30;8.35;;;;;;;18.10;42.90;100572.28;5035747;28;20045;-84
2022/12/12 10:15:05;;;;;;;11.35;8.60;;;;;;;18.09;42.91;100570.59;5035885;28;20049;-83
2022/12/12 10:17:52;;;;;;;10.77;7.85;;;;;;;18.09;42.97;100573.28;5036613;28;20052;-82
2022/12/12 10:20:29;;;;;;;11.00;7.95;;;;;;;18.10;43.06;100576.78;5033716;28;20049;-84
2022/12/12 10:23:14;;;;;;;11.60;8.23;;;;;;;18.11;43.02;100578.50;5034865;28;20048;-84
2022/12/12 10:26:07;;;;;;;11.82;8.27;;;;;;;18.08;43.05;100571.59;5034374;28;20056;-84
2022/12/12 10:28:35;;;;;;;11.10;7.97;;;;;;;18.08;43.07;100568.91;5034594;28;20045;-83
2022/12/12 10:31:44;;;;;;;9.32;7.43;;;;;;;18.10;43.12;100566.09;5034414;28;20190;-83
2022/12/12 10:35:10;;;;;;;10.05;7.00;;;;;;;18.09;43.25;100559.03;5032167;28;20057;-84
2022/12/12 10:38:05;;;;;;;10.60;7.72;;;;;;;18.08;42.42;100543.94;4998208;28;20046;-84
2022/12/12 10:40:37;;;;;;;9.75;6.65;;;;;;;18.08;43.10;100546.63;5013247;28;20049;-84
2022/12/12 10:43:22;;;;;;;9.98;7.18;;;;;;;18.09;43.25;100549.16;5013488;28;20054;-84
2022/12/12 10:46:22;;;;;;;10.48;7.35;;;;;;;18.08;43.13;100547.47;5013424;28;20065;-83
2022/12/12 10:48:50;;;;;;;9.70;6.57;;;;;;;18.08;43.26;100538.59;5013313;28;20073;-79
2022/12/12 10:51:22;;;;;;;9.63;7.20;;;;;;;18.08;43.28;100542.13;5013390;28;20049;-86
2022/12/12 10:53:49;;;;;;;8.68;7.40;;;;;;;18.08;43.18;100542.13;4995867;28;20132;-83
2022/12/12 10:56:23;;;;;;;9.52;7.47;;;;;;;18.08;43.39;100530.56;5012243;28;20061;-83
2022/12/12 10:58:56;;;;;;;9.63;6.70;;;;;;;18.08;43.15;100535.91;4995167;28;20060;-83
2022/12/12 11:01:31;;;;;;;9.68;7.50;;;;;;;18.08;43.39;100534.06;5012506;28;20161;-83
2022/12/12 11:04:19;;;;;;;14.35;7.43;;;;;;;18.06;43.11;100538.69;5012389;28;20053;-83
2022/12/12 11:06:53;;;;;;;11.27;8.07;;;;;;;18.05;43.33;100537.00;5012436;28;20049;-83
2022/12/12 11:09:27;;;;;;;11.52;7.53;;;;;;;18.06;43.30;100532.50;5034079;28;20061;-83
2022/12/12 11:12:08;;;;;;;9.65;7.50;;;;;;;18.05;43.33;100520.94;5033708;28;20390;-83
2022/12/12 11:14:43;;;;;;;8.88;6.85;;;;;;;18.05;43.26;100528.97;5033383;28;20064;-83
2022/12/12 11:17:38;;;;;;;9.35;7.32;;;;;;;18.03;43.28;100512.19;5034294;28;20068;-83
2022/12/12 11:20:13;;;;;;;8.52;6.95;;;;;;;18.03;43.20;100514.88;5033409;28;20413;-83
2022/12/12 11:22:40;;;;;;;9.93;6.80;;;;;;;18.04;43.31;100513.88;5034567;28;20049;-83
2022/12/12 11:25:39;;;;;;;8.57;7.00;;;;;;;18.03;43.33;100517.56;5033685;28;20477;-82
2022/12/12 11:28:19;;;;;;;9.18;7.03;;;;;;;18.01;43.31;100515.00;5034031;28;20046;-82
2022/12/12 11:30:51;;;;;;;9.48;6.50;;;;;;;18.02;43.43;100510.47;5032534;28;20057;-82
2022/12/12 11:33:22;;;;;;;10.20;7.32;;;;;;;18.02;43.37;100515.84;5034091;28;20049;-83
2022/12/12 11:35:54;;;;;;;9.65;7.47;;;;;;;18.02;43.43;100511.31;5049114;28;20056;-83
2022/12/12 11:38:36;;;;;;;9.40;7.05;;;;;;;18.02;43.43;100510.47;5033845;28;20045;-83
2022/12/12 11:41:09;;;;;;;9.73;6.70;;;;;;;18.02;43.33;100503.28;5032698;28;20064;-82
2022/12/12 11:43:49;;;;;;;9.43;6.88;;;;;;;18.02;43.30;100505.13;5032877;28;20127;-82
2022/12/12 11:46:19;;;;;;;9.60;7.15;;;;;;;18.02;43.34;100502.44;5033880;28;20052;-83
2022/12/12 11:48:53;;;;;;;8.88;6.40;;;;;;;18.02;43.32;100508.66;5049108;28;20046;-82
2022/12/12 11:51:43;;;;;;;7.80;6.20;;;;;;;18.01;43.30;100520.34;5033093;28;20053;-83
2022/12/12 11:54:28;;;;;;;8.32;6.53;;;;;;;18.01;43.29;100525.69;5033761;28;20045;-82
2022/12/12 11:57:24;;;;;;;9.15;6.35;;;;;;;18.01;43.29;100517.66;5031978;28;20087;-83
2022/12/12 11:59:54;;;;;;;8.82;6.18;;;;;;;18.02;43.45;100505.13;5012162;28;20062;-82
2022/12/12 12:02:52;;;;;;;10.23;6.18;;;;;;;18.02;43.67;100503.28;5012164;28;20061;-82
2022/12/12 12:05:31;;;;;;;9.85;6.72;;;;;;;18.02;43.71;100499.75;4996489;28;20522;-82